sensor_id;sensor_type;location;lat;lon;timestamp;pressure;altitude;pressure_sealevel;temperature;humidity
10167;BME280;62970;53.130;8.244;2022-09-21T00:00:15;102632.31;;;5.06;76.87
10167;BME280;62970;53.130;8.244;2022-09-21T00:02:45;102637.41;;;5.03;76.58
10167;BME280;62970;53.130;8.244;2022-09-21T00:05:14;102639.91;;;5.00;76.83
10167;BME280;62970;53.130;8.244;2022-09-21T00:07:43;102639.81;;;4.97;76.36
10167;BME280;62970;53.130;8.244;2022-09-21T00:10:16;102635.44;;;4.95;76.53
10167;BME280;62970;53.130;8.244;2022-09-21T00:12:45;102635.34;;;4.92;76.35
10167;BME280;62970;53.130;8.244;2022-09-21T00:15:16;102639.59;;;4.90;76.55
10167;BME280;62970;53.130;8.244;2022-09-21T00:17:46;102636.09;;;4.88;76.44
10167;BME280;62970;53.130;8.244;2022-09-21T00:20:15;102647.25;;;4.87;76.78
10167;BME280;62970;53.130;8.244;2022-09-21T00:22:46;102643.72;;;4.83;76.70
10167;BME280;62970;53.130;8.244;2022-09-21T00:25:19;102640.19;;;4.81;76.86
10167;BME280;62970;53.130;8.244;2022-09-21T00:27:48;102648.84;;;4.82;76.49
10167;BME280;62970;53.130;8.244;2022-09-21T00:30:18;102648.72;;;4.79;76.36
10167;BME280;62970;53.130;8.244;2022-09-21T00:32:47;102644.38;;;4.78;76.62
10167;BME280;62970;53.130;8.244;2022-09-21T00:35:16;102633.94;;;4.74;76.44
10167;BME280;62970;53.130;8.244;2022-09-21T00:37:46;102634.72;;;4.72;76.20
10167;BME280;62970;53.130;8.244;2022-09-21T00:40:17;102644.97;;;4.69;76.59
10167;BME280;62970;53.130;8.244;2022-09-21T00:42:47;102640.59;;;4.66;76.64
10167;BME280;62970;53.130;8.244;2022-09-21T00:45:16;102643.97;;;4.64;76.64
10167;BME280;62970;53.130;8.244;2022-09-21T00:47:50;102636.13;;;4.61;76.73
10167;BME280;62970;53.130;8.244;2022-09-21T00:50:23;102643.78;;;4.58;76.73
10167;BME280;62970;53.130;8.244;2022-09-21T00:52:55;102647.13;;;4.55;76.34
10167;BME280;62970;53.130;8.244;2022-09-21T00:55:33;102641.88;;;4.52;76.48
10167;BME280;62970;53.130;8.244;2022-09-21T00:58:10;102642.66;;;4.50;76.44
10167;BME280;62970;53.130;8.244;2022-09-21T01:00:42;102645.19;;;4.48;76.20
10167;BME280;62970;53.130;8.244;2022-09-21T01:03:12;102651.16;;;4.46;76.35
10167;BME280;62970;53.130;8.244;2022-09-21T01:05:41;102651.97;;;4.45;76.66
10167;BME280;62970;53.130;8.244;2022-09-21T01:08:11;102650.16;;;4.42;76.65
10167;BME280;62970;53.130;8.244;2022-09-21T01:11:02;102649.19;;;4.38;76.95
10167;BME280;62970;53.130;8.244;2022-09-21T01:13:54;102651.69;;;4.35;76.67
10167;BME280;62970;53.130;8.244;2022-09-21T01:16:34;102651.63;;;4.34;76.40
10167;BME280;62970;53.130;8.244;2022-09-21T01:19:26;102655.88;;;4.32;76.84
10167;BME280;62970;53.130;8.244;2022-09-21T01:22:09;102657.50;;;4.28;76.34
10167;BME280;62970;53.130;8.244;2022-09-21T01:24:51;102654.81;;;4.25;76.66
10167;BME280;62970;53.130;8.244;2022-09-21T01:28:10;102658.13;;;4.21;77.08
10167;BME280;62970;53.130;8.244;2022-09-21T01:30:46;102658.94;;;4.20;76.35
10167;BME280;62970;53.130;8.244;2022-09-21T01:33:23;102661.47;;;4.19;76.46
10167;BME280;62970;53.130;8.244;2022-09-21T01:35:58;102667.44;;;4.16;76.50
10167;BME280;62970;53.130;8.244;2022-09-21T01:38:32;102665.66;;;4.15;76.40
10167;BME280;62970;53.130;8.244;2022-09-21T01:41:05;102669.91;;;4.13;76.10
10167;BME280;62970;53.130;8.244;2022-09-21T01:43:41;102666.41;;;4.11;76.05
10167;BME280;62970;53.130;8.244;2022-09-21T01:46:16;102660.31;;;4.09;76.35
10167;BME280;62970;53.130;8.244;2022-09-21T01:48:52;102660.25;;;4.07;76.17
10167;BME280;62970;53.130;8.244;2022-09-21T01:51:26;102661.91;;;4.05;76.17
10167;BME280;62970;53.130;8.244;2022-09-21T01:54:01;102658.34;;;4.02;76.46
10167;BME280;62970;53.130;8.244;2022-09-21T01:56:35;102658.28;;;4.00;76.11
10167;BME280;62970;53.130;8.244;2022-09-21T01:59:10;102655.63;;;3.97;76.07
10167;BME280;62970;53.130;8.244;2022-09-21T02:01:50;102667.59;;;3.95;76.69
10167;BME280;62970;53.130;8.244;2022-09-21T02:04:21;102668.41;;;3.94;76.04
10167;BME280;62970;53.130;8.244;2022-09-21T02:06:53;102663.94;;;3.89;76.33
10167;BME280;62970;53.130;8.244;2022-09-21T02:09:23;102661.28;;;3.87;75.93
10167;BME280;62970;53.130;8.244;2022-09-21T02:11:53;102670.69;;;3.85;75.90
10167;BME280;62970;53.130;8.244;2022-09-21T02:14:24;102669.75;;;3.83;76.41
10167;BME280;62970;53.130;8.244;2022-09-21T02:17:06;102663.66;;;3.81;76.76
10167;BME280;62970;53.130;8.244;2022-09-21T02:19:45;102667.97;;;3.81;76.35
10167;BME280;62970;53.130;8.244;2022-09-21T02:22:28;102663.56;;;3.78;76.56
10167;BME280;62970;53.130;8.244;2022-09-21T02:25:08;102661.81;;;3.77;76.36
10167;BME280;62970;53.130;8.244;2022-09-21T02:27:46;102669.44;;;3.74;76.70
10167;BME280;62970;53.130;8.244;2022-09-21T02:30:19;102660.78;;;3.72;76.03
10167;BME280;62970;53.130;8.244;2022-09-21T02:32:58;102668.47;;;3.70;76.48
10167;BME280;62970;53.130;8.244;2022-09-21T02:35:34;102669.25;;;3.68;76.51
10167;BME280;62970;53.130;8.244;2022-09-21T02:38:11;102662.31;;;3.67;76.61
10167;BME280;62970;53.130;8.244;2022-09-21T02:40:49;102667.44;;;3.65;76.79
10167;BME280;62970;53.130;8.244;2022-09-21T02:43:22;102660.50;;;3.64;76.59
10167;BME280;62970;53.130;8.244;2022-09-21T02:45:58;102663.03;;;3.63;76.32
10167;BME280;62970;53.130;8.244;2022-09-21T02:48:36;102663.81;;;3.60;76.62
10167;BME280;62970;53.130;8.244;2022-09-21T02:51:10;102667.22;;;3.59;76.56
10167;BME280;62970;53.130;8.244;2022-09-21T02:53:42;102662.81;;;3.57;76.45
10167;BME280;62970;53.130;8.244;2022-09-21T02:56:13;102664.47;;;3.55;76.33
10167;BME280;62970;53.130;8.244;2022-09-21T02:58:49;102666.94;;;3.52;76.15
10167;BME280;62970;53.130;8.244;2022-09-21T03:01:20;102666.00;;;3.50;76.25
10167;BME280;62970;53.130;8.244;2022-09-21T03:03:54;102655.66;;;3.48;76.11
10167;BME280;62970;53.130;8.244;2022-09-21T03:06:23;102666.78;;;3.47;76.05
10167;BME280;62970;53.130;8.244;2022-09-21T03:08:53;102667.63;;;3.46;76.23
10167;BME280;62970;53.130;8.244;2022-09-21T03:11:23;102662.41;;;3.44;76.16
10167;BME280;62970;53.130;8.244;2022-09-21T03:13:53;102669.25;;;3.44;76.17
10167;BME280;62970;53.130;8.244;2022-09-21T03:16:22;102674.31;;;3.41;76.26
10167;BME280;62970;53.130;8.244;2022-09-21T03:18:54;102670.78;;;3.39;76.10
10167;BME280;62970;53.130;8.244;2022-09-21T03:21:24;102668.22;;;3.39;76.08
10167;BME280;62970;53.130;8.244;2022-09-21T03:23:54;102668.97;;;3.36;76.56
10167;BME280;62970;53.130;8.244;2022-09-21T03:26:23;102673.25;;;3.36;76.07
10167;BME280;62970;53.130;8.244;2022-09-21T03:28:53;102671.47;;;3.33;76.38
10167;BME280;62970;53.130;8.244;2022-09-21T03:31:22;102673.16;;;3.33;76.15
10167;BME280;62970;53.130;8.244;2022-09-21T03:33:54;102675.69;;;3.31;76.59
10167;BME280;62970;53.130;8.244;2022-09-21T03:36:27;102679.06;;;3.30;76.43
10167;BME280;62970;53.130;8.244;2022-09-21T03:38:56;102680.72;;;3.28;76.37
10167;BME280;62970;53.130;8.244;2022-09-21T03:41:25;102676.38;;;3.27;76.43
10167;BME280;62970;53.130;8.244;2022-09-21T03:43:55;102681.50;;;3.26;76.26
10167;BME280;62970;53.130;8.244;2022-09-21T03:46:24;102679.72;;;3.25;76.38
10167;BME280;62970;53.130;8.244;2022-09-21T03:48:56;102680.50;;;3.22;76.37
10167;BME280;62970;53.130;8.244;2022-09-21T03:51:25;102680.50;;;3.22;76.57
10167;BME280;62970;53.130;8.244;2022-09-21T03:53:56;102683.84;;;3.20;76.19
10167;BME280;62970;53.130;8.244;2022-09-21T03:56:25;102685.50;;;3.18;76.20
10167;BME280;62970;53.130;8.244;2022-09-21T03:58:55;102688.00;;;3.16;76.20
10167;BME280;62970;53.130;8.244;2022-09-21T04:01:24;102687.13;;;3.16;76.32
10167;BME280;62970;53.130;8.244;2022-09-21T04:03:56;102693.94;;;3.13;76.65
10167;BME280;62970;53.130;8.244;2022-09-21T04:06:25;102693.06;;;3.13;76.30
10167;BME280;62970;53.130;8.244;2022-09-21T04:08:55;102687.03;;;3.12;76.52
10167;BME280;62970;53.130;8.244;2022-09-21T04:11:25;102690.41;;;3.11;76.34
10167;BME280;62970;53.130;8.244;2022-09-21T04:13:55;102688.66;;;3.10;76.66
10167;BME280;62970;53.130;8.244;2022-09-21T04:16:25;102692.00;;;3.08;76.18
10167;BME280;62970;53.130;8.244;2022-09-21T04:18:57;102683.34;;;3.06;76.65
10167;BME280;62970;53.130;8.244;2022-09-21T04:21:27;102686.72;;;3.05;76.60
10167;BME280;62970;53.130;8.244;2022-09-21T04:23:57;102684.97;;;3.04;76.47
10167;BME280;62970;53.130;8.244;2022-09-21T04:26:29;102680.66;;;3.03;76.62
10167;BME280;62970;53.130;8.244;2022-09-21T04:28:59;102684.88;;;3.01;76.25
10167;BME280;62970;53.130;8.244;2022-09-21T04:31:29;102683.09;;;3.00;76.44
10167;BME280;62970;53.130;8.244;2022-09-21T04:34:01;102685.63;;;2.98;76.63
10167;BME280;62970;53.130;8.244;2022-09-21T04:36:30;102681.28;;;2.97;76.58
10167;BME280;62970;53.130;8.244;2022-09-21T04:39:00;102688.09;;;2.95;76.15
10167;BME280;62970;53.130;8.244;2022-09-21T04:41:29;102694.06;;;2.94;76.49
10167;BME280;62970;53.130;8.244;2022-09-21T04:44:00;102694.81;;;2.92;76.41
10167;BME280;62970;53.130;8.244;2022-09-21T04:46:29;102693.88;;;2.90;76.04
10167;BME280;62970;53.130;8.244;2022-09-21T04:49:01;102693.78;;;2.88;76.07
10167;BME280;62970;53.130;8.244;2022-09-21T04:51:31;102696.31;;;2.87;76.48
10167;BME280;62970;53.130;8.244;2022-09-21T04:54:00;102695.44;;;2.86;76.26
10167;BME280;62970;53.130;8.244;2022-09-21T04:56:29;102691.91;;;2.84;76.58
10167;BME280;62970;53.130;8.244;2022-09-21T04:58:59;102693.63;;;2.84;76.65
10167;BME280;62970;53.130;8.244;2022-09-21T05:01:28;102705.56;;;2.81;76.11
10167;BME280;62970;53.130;8.244;2022-09-21T05:04:01;102702.13;;;2.81;76.33
10167;BME280;62970;53.130;8.244;2022-09-21T05:06:32;102704.63;;;2.79;76.57
10167;BME280;62970;53.130;8.244;2022-09-21T05:09:02;102700.28;;;2.78;76.32
10167;BME280;62970;53.130;8.244;2022-09-21T05:11:46;102711.47;;;2.79;76.30
10167;BME280;62970;53.130;8.244;2022-09-21T05:14:17;102706.31;;;2.79;76.91
10167;BME280;62970;53.130;8.244;2022-09-21T05:16:46;102718.44;;;2.81;76.60
10167;BME280;62970;53.130;8.244;2022-09-21T05:19:18;102709.84;;;2.81;76.97
10167;BME280;62970;53.130;8.244;2022-09-21T05:21:48;102711.66;;;2.84;77.13
10167;BME280;62970;53.130;8.244;2022-09-21T05:24:18;102716.94;;;2.87;77.03
10167;BME280;62970;53.130;8.244;2022-09-21T05:26:47;102723.13;;;2.90;77.67
10167;BME280;62970;53.130;8.244;2022-09-21T05:29:17;102721.53;;;2.94;77.30
10167;BME280;62970;53.130;8.244;2022-09-21T05:31:54;102720.00;;;2.99;77.57
10167;BME280;62970;53.130;8.244;2022-09-21T05:34:46;102726.22;;;3.04;78.29
10167;BME280;62970;53.130;8.244;2022-09-21T05:37:38;102717.03;;;3.10;77.90
10167;BME280;62970;53.130;8.244;2022-09-21T05:40:11;102715.59;;;3.19;78.35
10167;BME280;62970;53.130;8.244;2022-09-21T05:42:42;102723.63;;;3.26;78.35
10167;BME280;62970;53.130;8.244;2022-09-21T05:45:16;102725.59;;;3.33;78.59
10167;BME280;62970;53.130;8.244;2022-09-21T05:48:08;102731.09;;;3.42;78.82
10167;BME280;62970;53.130;8.244;2022-09-21T05:50:54;102725.41;;;3.51;79.05
10167;BME280;62970;53.130;8.244;2022-09-21T05:53:49;102730.88;;;3.60;78.83
10167;BME280;62970;53.130;8.244;2022-09-21T05:56:37;102734.00;;;3.75;79.65
10167;BME280;62970;53.130;8.244;2022-09-21T05:59:48;102729.25;;;4.12;80.66
10167;BME280;62970;53.130;8.244;2022-09-21T06:02:32;102731.00;;;4.65;82.26
10167;BME280;62970;53.130;8.244;2022-09-21T06:05:10;102726.84;;;5.25;83.36
10167;BME280;62970;53.130;8.244;2022-09-21T06:07:42;102735.28;;;5.80;83.83
10167;BME280;62970;53.130;8.244;2022-09-21T06:10:13;102732.97;;;6.23;83.20
10167;BME280;62970;53.130;8.244;2022-09-21T06:12:42;102733.91;;;6.61;82.88
10167;BME280;62970;53.130;8.244;2022-09-21T06:15:14;102747.47;;;6.87;82.35
10167;BME280;62970;53.130;8.244;2022-09-21T06:17:43;102745.25;;;7.04;80.16
10167;BME280;62970;53.130;8.244;2022-09-21T06:20:13;102741.00;;;7.06;79.50
10167;BME280;62970;53.130;8.244;2022-09-21T06:22:45;102743.38;;;6.97;78.54
10167;BME280;62970;53.130;8.244;2022-09-21T06:25:14;102748.31;;;6.86;77.87
10167;BME280;62970;53.130;8.244;2022-09-21T06:27:45;102755.00;;;6.77;78.13
10167;BME280;62970;53.130;8.244;2022-09-21T06:30:14;102754.78;;;6.67;77.96
10167;BME280;62970;53.130;8.244;2022-09-21T06:32:43;102755.53;;;6.62;78.17
10167;BME280;62970;53.130;8.244;2022-09-21T06:35:13;102751.19;;;6.61;79.03
10167;BME280;62970;53.130;8.244;2022-09-21T06:37:44;102752.03;;;6.60;79.35
10167;BME280;62970;53.130;8.244;2022-09-21T06:40:13;102756.41;;;6.62;79.33
10167;BME280;62970;53.130;8.244;2022-09-21T06:42:42;102753.91;;;6.67;79.73
10167;BME280;62970;53.130;8.244;2022-09-21T06:45:12;102759.25;;;6.73;79.71
10167;BME280;62970;53.130;8.244;2022-09-21T06:47:46;102755.00;;;6.77;80.33
10167;BME280;62970;53.130;8.244;2022-09-21T06:50:15;102753.47;;;6.85;80.16
10167;BME280;62970;53.130;8.244;2022-09-21T06:52:47;102751.03;;;6.91;80.88
10167;BME280;62970;53.130;8.244;2022-09-21T06:55:16;102747.81;;;7.03;81.11
10167;BME280;62970;53.130;8.244;2022-09-21T06:57:45;102742.84;;;7.12;80.99
10167;BME280;62970;53.130;8.244;2022-09-21T07:00:16;102743.91;;;7.20;81.41
10167;BME280;62970;53.130;8.244;2022-09-21T07:02:46;102753.56;;;7.27;81.15
10167;BME280;62970;53.130;8.244;2022-09-21T07:05:15;102745.00;;;7.31;81.13
10167;BME280;62970;53.130;8.244;2022-09-21T07:07:47;102745.03;;;7.32;80.46
10167;BME280;62970;53.130;8.244;2022-09-21T07:10:17;102745.06;;;7.34;80.20
10167;BME280;62970;53.130;8.244;2022-09-21T07:12:46;102751.09;;;7.33;79.83
10167;BME280;62970;53.130;8.244;2022-09-21T07:15:17;102748.44;;;7.30;79.87
10167;BME280;62970;53.130;8.244;2022-09-21T07:17:46;102743.16;;;7.25;79.15
10167;BME280;62970;53.130;8.244;2022-09-21T07:20:15;102744.81;;;7.22;79.52
10167;BME280;62970;53.130;8.244;2022-09-21T07:22:47;102753.38;;;7.19;79.40
10167;BME280;62970;53.130;8.244;2022-09-21T07:25:18;102748.13;;;7.16;79.20
10167;BME280;62970;53.130;8.244;2022-09-21T07:27:47;102750.69;;;7.15;79.33
10167;BME280;62970;53.130;8.244;2022-09-21T07:30:17;102752.41;;;7.14;79.56
10167;BME280;62970;53.130;8.244;2022-09-21T07:32:46;102748.91;;;7.12;79.38
10167;BME280;62970;53.130;8.244;2022-09-21T07:35:15;102754.94;;;7.11;79.42
10167;BME280;62970;53.130;8.244;2022-09-21T07:37:47;102758.41;;;7.12;79.92
10167;BME280;62970;53.130;8.244;2022-09-21T07:40:16;102760.19;;;7.14;79.84
10167;BME280;62970;53.130;8.244;2022-09-21T07:42:46;102759.34;;;7.15;79.75
10167;BME280;62970;53.130;8.244;2022-09-21T07:45:15;102768.03;;;7.17;79.85
10167;BME280;62970;53.130;8.244;2022-09-21T07:47:45;102760.34;;;7.20;80.11
10167;BME280;62970;53.130;8.244;2022-09-21T07:50:14;102760.41;;;7.23;80.35
10167;BME280;62970;53.130;8.244;2022-09-21T07:52:43;102762.22;;;7.27;80.32
10167;BME280;62970;53.130;8.244;2022-09-21T07:55:15;102765.78;;;7.31;80.37
10167;BME280;62970;53.130;8.244;2022-09-21T07:57:44;102763.31;;;7.37;80.71
10167;BME280;62970;53.130;8.244;2022-09-21T08:00:26;102756.53;;;7.42;80.47
10167;BME280;62970;53.130;8.244;2022-09-21T08:02:57;102756.63;;;7.47;80.65
10167;BME280;62970;53.130;8.244;2022-09-21T08:05:27;102758.50;;;7.54;80.79
10167;BME280;62970;53.130;8.244;2022-09-21T08:07:59;102765.53;;;7.59;80.68
10167;BME280;62970;53.130;8.244;2022-09-21T08:10:31;102763.94;;;7.66;81.06
10167;BME280;62970;53.130;8.244;2022-09-21T08:13:01;102764.06;;;7.72;80.78
10167;BME280;62970;53.130;8.244;2022-09-21T08:15:30;102760.75;;;7.81;80.87
10167;BME280;62970;53.130;8.244;2022-09-21T08:18:00;102763.44;;;7.85;81.38
10167;BME280;62970;53.130;8.244;2022-09-21T08:20:30;102766.19;;;7.93;81.05
10167;BME280;62970;53.130;8.244;2022-09-21T08:22:59;102761.97;;;8.00;81.37
10167;BME280;62970;53.130;8.244;2022-09-21T08:25:31;102758.63;;;8.05;81.55
10167;BME280;62970;53.130;8.244;2022-09-21T08:28:01;102768.25;;;8.12;81.40
10167;BME280;62970;53.130;8.244;2022-09-21T08:30:31;102761.47;;;8.19;81.17
10167;BME280;62970;53.130;8.244;2022-09-21T08:33:00;102772.84;;;8.25;81.13
10167;BME280;62970;53.130;8.244;2022-09-21T08:35:29;102771.22;;;8.32;81.66
10167;BME280;62970;53.130;8.244;2022-09-21T08:37:59;102767.00;;;8.39;81.23
10167;BME280;62970;53.130;8.244;2022-09-21T08:40:31;102771.44;;;8.46;81.46
10167;BME280;62970;53.130;8.244;2022-09-21T08:43:06;102762.03;;;8.52;81.58
10167;BME280;62970;53.130;8.244;2022-09-21T08:45:43;102764.75;;;8.60;81.78
10167;BME280;62970;53.130;8.244;2022-09-21T08:48:17;102757.91;;;8.67;81.77
10167;BME280;62970;53.130;8.244;2022-09-21T08:50:54;102764.06;;;8.72;81.62
10167;BME280;62970;53.130;8.244;2022-09-21T08:53:29;102762.41;;;8.77;81.34
10167;BME280;62970;53.130;8.244;2022-09-21T08:56:03;102764.25;;;8.82;81.26
10167;BME280;62970;53.130;8.244;2022-09-21T08:58:32;102771.28;;;8.88;81.57
10167;BME280;62970;53.130;8.244;2022-09-21T09:01:19;102773.06;;;8.92;81.86
10167;BME280;62970;53.130;8.244;2022-09-21T09:04:08;102773.16;;;8.98;81.92
10167;BME280;62970;53.130;8.244;2022-09-21T09:07:01;102769.78;;;9.05;81.83
10167;BME280;62970;53.130;8.244;2022-09-21T09:09:47;102769.91;;;9.13;81.48
10167;BME280;62970;53.130;8.244;2022-09-21T09:12:38;102777.78;;;9.19;82.03
10167;BME280;62970;53.130;8.244;2022-09-21T09:15:49;102780.50;;;9.27;82.06
10167;BME280;62970;53.130;8.244;2022-09-21T09:18:28;102782.31;;;9.34;81.87
10167;BME280;62970;53.130;8.244;2022-09-21T09:21:07;102782.41;;;9.40;81.63
10167;BME280;62970;53.130;8.244;2022-09-21T09:23:44;102785.09;;;9.46;81.73
10167;BME280;62970;53.130;8.244;2022-09-21T09:26:20;102788.66;;;9.54;81.86
10167;BME280;62970;53.130;8.244;2022-09-21T09:28:57;102782.69;;;9.61;82.00
10167;BME280;62970;53.130;8.244;2022-09-21T09:31:30;102781.00;;;9.66;81.71
10167;BME280;62970;53.130;8.244;2022-09-21T09:34:07;102774.09;;;9.71;81.54
10167;BME280;62970;53.130;8.244;2022-09-21T09:36:43;102775.03;;;9.76;81.41
10167;BME280;62970;53.130;8.244;2022-09-21T09:39:15;102769.03;;;9.82;81.58
10167;BME280;62970;53.130;8.244;2022-09-21T09:42:13;102769.09;;;9.88;81.80
10167;BME280;62970;53.130;8.244;2022-09-21T09:45:42;102769.16;;;9.94;81.84
10167;BME280;62970;53.130;8.244;2022-09-21T09:48:31;102774.47;;;10.02;81.38
10167;BME280;62970;53.130;8.244;2022-09-21T09:51:04;102778.00;;;10.08;81.03
10167;BME280;62970;53.130;8.244;2022-09-21T09:53:33;102778.94;;;10.15;81.27
10167;BME280;62970;53.130;8.244;2022-09-21T09:56:03;102775.56;;;10.21;80.86
10167;BME280;62970;53.130;8.244;2022-09-21T09:58:40;102779.97;;;10.26;81.40
10167;BME280;62970;53.130;8.244;2022-09-21T10:01:37;102780.91;;;10.34;81.38
10167;BME280;62970;53.130;8.244;2022-09-21T10:04:09;102781.84;;;10.44;81.65
10167;BME280;62970;53.130;8.244;2022-09-21T10:06:39;102783.66;;;10.52;81.63
10167;BME280;62970;53.130;8.244;2022-09-21T10:09:26;102774.13;;;10.58;82.07
10167;BME280;62970;53.130;8.244;2022-09-21T10:11:59;102775.06;;;10.63;81.46
10167;BME280;62970;53.130;8.244;2022-09-21T10:14:33;102770.75;;;10.69;81.96
10167;BME280;62970;53.130;8.244;2022-09-21T10:17:07;102770.81;;;10.77;81.67
10167;BME280;62970;53.130;8.244;2022-09-21T10:19:47;102772.59;;;10.84;81.94
10167;BME280;62970;53.130;8.244;2022-09-21T10:22:18;102775.25;;;10.93;82.06
10167;BME280;62970;53.130;8.244;2022-09-21T10:24:50;102771.84;;;11.03;82.01
10167;BME280;62970;53.130;8.244;2022-09-21T10:27:25;102769.28;;;11.12;81.50
10167;BME280;62970;53.130;8.244;2022-09-21T10:29:55;102771.94;;;11.22;80.79
10167;BME280;62970;53.130;8.244;2022-09-21T10:32:29;102774.59;;;11.28;80.78
10167;BME280;62970;53.130;8.244;2022-09-21T10:35:15;102764.16;;;11.34;80.92
10167;BME280;62970;53.130;8.244;2022-09-21T10:37:48;102770.28;;;11.39;80.19
10167;BME280;62970;53.130;8.244;2022-09-21T10:40:26;102760.72;;;11.41;79.84
10167;BME280;62970;53.130;8.244;2022-09-21T10:42:58;102758.16;;;11.44;79.64
10167;BME280;62970;53.130;8.244;2022-09-21T10:45:29;102765.13;;;11.48;80.09
10167;BME280;62970;53.130;8.244;2022-09-21T10:48:08;102755.56;;;11.53;80.14
10167;BME280;62970;53.130;8.244;2022-09-21T10:50:43;102753.84;;;11.58;79.59
10167;BME280;62970;53.130;8.244;2022-09-21T10:53:22;102759.97;;;11.65;79.67
10167;BME280;62970;53.130;8.244;2022-09-21T10:56:01;102760.88;;;11.71;79.80
10167;BME280;62970;53.130;8.244;2022-09-21T10:58:33;102753.91;;;11.78;79.14
10167;BME280;62970;53.130;8.244;2022-09-21T11:01:11;102754.78;;;11.86;79.85
10167;BME280;62970;53.130;8.244;2022-09-21T11:03:49;102748.72;;;11.96;80.32
10167;BME280;62970;53.130;8.244;2022-09-21T11:06:24;102751.34;;;12.04;79.89
10167;BME280;62970;53.130;8.244;2022-09-21T11:08:58;102750.47;;;12.11;79.65
10167;BME280;62970;53.130;8.244;2022-09-21T11:11:42;102754.84;;;12.18;79.64
10167;BME280;62970;53.130;8.244;2022-09-21T11:14:26;102751.38;;;12.25;79.66
10167;BME280;62970;53.130;8.244;2022-09-21T11:17:02;102749.63;;;12.30;79.36
10167;BME280;62970;53.130;8.244;2022-09-21T11:19:44;102742.66;;;12.29;78.51
10167;BME280;62970;53.130;8.244;2022-09-21T11:22:26;102749.63;;;12.30;78.73
10167;BME280;62970;53.130;8.244;2022-09-21T11:25:21;102749.63;;;12.29;78.51
10167;BME280;62970;53.130;8.244;2022-09-21T11:27:58;102747.00;;;12.26;77.85
10167;BME280;62970;53.130;8.244;2022-09-21T11:30:41;102745.25;;;12.20;77.75
10167;BME280;62970;53.130;8.244;2022-09-21T11:33:30;102743.50;;;12.11;77.71
10167;BME280;62970;53.130;8.244;2022-09-21T11:36:12;102741.75;;;12.03;77.33
10167;BME280;62970;53.130;8.244;2022-09-21T11:38:55;102743.50;;;11.96;77.27
10167;BME280;62970;53.130;8.244;2022-09-21T11:41:46;102734.78;;;11.91;77.44
10167;BME280;62970;53.130;8.244;2022-09-21T11:44:34;102737.38;;;11.87;77.29
10167;BME280;62970;53.130;8.244;2022-09-21T11:47:20;102734.75;;;11.84;76.95
10167;BME280;62970;53.130;8.244;2022-09-21T11:50:26;102735.63;;;11.83;77.12
10167;BME280;62970;53.130;8.244;2022-09-21T11:53:20;102731.28;;;11.83;77.85
10167;BME280;62970;53.130;8.244;2022-09-21T11:56:36;102725.19;;;11.89;78.20
10167;BME280;62970;53.130;8.244;2022-09-21T11:59:32;102724.31;;;12.02;79.12
10167;BME280;62970;53.130;8.244;2022-09-21T12:02:54;102730.44;;;12.16;79.48
10167;BME280;62970;53.130;8.244;2022-09-21T12:05:34;102729.56;;;12.35;79.06
10167;BME280;62970;53.130;8.244;2022-09-21T12:08:39;102726.94;;;12.52;79.68
10167;BME280;62970;53.130;8.244;2022-09-21T12:11:23;102720.00;;;12.68;79.17
10167;BME280;62970;53.130;8.244;2022-09-21T12:14:03;102717.38;;;12.80;78.63
10167;BME280;62970;53.130;8.244;2022-09-21T12:19:21;102717.28;;;13.03;78.21
10167;BME280;62970;53.130;8.244;2022-09-21T12:21:58;102713.78;;;13.13;78.00
10167;BME280;62970;53.130;8.244;2022-09-21T12:24:39;102717.22;;;13.21;78.04
10167;BME280;62970;53.130;8.244;2022-09-21T12:27:26;102711.97;;;13.29;77.77
10167;BME280;62970;53.130;8.244;2022-09-21T12:30:02;102716.28;;;13.34;77.45
10167;BME280;62970;53.130;8.244;2022-09-21T12:32:48;102714.53;;;13.41;77.25
10167;BME280;62970;53.130;8.244;2022-09-21T12:35:25;102715.38;;;13.46;76.96
10167;BME280;62970;53.130;8.244;2022-09-21T12:38:02;102708.34;;;13.51;76.58
10167;BME280;62970;53.130;8.244;2022-09-21T12:40:38;102701.34;;;13.53;75.72
10167;BME280;62970;53.130;8.244;2022-09-21T12:43:25;102711.81;;;13.59;76.45
10167;BME280;62970;53.130;8.244;2022-09-21T12:46:03;102709.16;;;13.62;76.14
10167;BME280;62970;53.130;8.244;2022-09-21T12:48:37;102708.31;;;13.65;75.44
10167;BME280;62970;53.130;8.244;2022-09-21T12:53:46;102706.56;;;13.58;74.58
10167;BME280;62970;53.130;8.244;2022-09-21T12:56:28;102703.09;;;13.51;75.60
10167;BME280;62970;53.130;8.244;2022-09-21T12:59:12;102697.88;;;13.48;75.81
10167;BME280;62970;53.130;8.244;2022-09-21T13:01:51;102694.41;;;13.45;75.54
10167;BME280;62970;53.130;8.244;2022-09-21T13:04:47;102696.16;;;13.43;76.00
10167;BME280;62970;53.130;8.244;2022-09-21T13:07:53;102690.94;;;13.39;75.75
10167;BME280;62970;53.130;8.244;2022-09-21T13:10:39;102685.72;;;13.39;75.44
10167;BME280;62970;53.130;8.244;2022-09-21T13:13:26;102688.31;;;13.43;75.58
10167;BME280;62970;53.130;8.244;2022-09-21T13:15:57;102690.03;;;13.48;74.98
10167;BME280;62970;53.130;8.244;2022-09-21T13:18:31;102686.50;;;13.55;74.36
10167;BME280;62970;53.130;8.244;2022-09-21T13:21:14;102671.59;;;13.62;75.25
10167;BME280;62970;53.130;8.244;2022-09-21T13:23:54;102681.19;;;13.69;75.53
10167;BME280;62970;53.130;8.244;2022-09-21T13:26:34;102668.91;;;13.76;75.50
10167;BME280;62970;53.130;8.244;2022-09-21T13:29:29;102670.59;;;13.84;75.90
10167;BME280;62970;53.130;8.244;2022-09-21T13:31:59;102674.91;;;13.91;75.49
10167;BME280;62970;53.130;8.244;2022-09-21T13:34:44;102665.22;;;13.99;75.80
10167;BME280;62970;53.130;8.244;2022-09-21T13:37:33;102673.94;;;14.03;74.91
10167;BME280;62970;53.130;8.244;2022-09-21T13:40:38;102666.06;;;14.04;74.54
10167;BME280;62970;53.130;8.244;2022-09-21T13:43:43;102666.91;;;14.08;74.75
10167;BME280;62970;53.130;8.244;2022-09-21T13:46:52;102664.25;;;14.13;74.97
10167;BME280;62970;53.130;8.244;2022-09-21T13:49:37;102664.19;;;14.19;74.39